sensor_id;sensor_type;location;lat;lon;timestamp;P1;durP1;ratioP1;P2;durP2;ratioP2
13218;SDS011;6674;49.152;11.918;2023-08-31T00:03:14;2.20;;;2.10;;
13218;SDS011;6674;49.152;11.918;2023-08-31T00:06:41;3.10;;;2.50;;
13218;SDS011;6674;49.152;11.918;2023-08-31T00:10:01;2.50;;;2.30;;
13218;SDS011;6674;49.152;11.918;2023-08-31T00:13:23;2.33;;;2.13;;
13218;SDS011;6674;49.152;11.918;2023-08-31T00:16:43;2.50;;;2.30;;
13218;SDS011;6674;49.152;11.918;2023-08-31T00:20:05;4.00;;;2.70;;
13218;SDS011;6674;49.152;11.918;2023-08-31T00:23:24;2.67;;;2.47;;
13218;SDS011;6674;49.152;11.918;2023-08-31T00:26:47;2.70;;;2.50;;
13218;SDS011;6674;49.152;11.918;2023-08-31T00:30:07;2.00;;;1.90;;
13218;SDS011;6674;49.152;11.918;2023-08-31T00:33:29;2.50;;;2.30;;
13218;SDS011;6674;49.152;11.918;2023-08-31T00:36:50;2.63;;;2.43;;
13218;SDS011;6674;49.152;11.918;2023-08-31T00:40:10;2.20;;;2.00;;
13218;SDS011;6674;49.152;11.918;2023-08-31T00:43:30;1.73;;;1.60;;
13218;SDS011;6674;49.152;11.918;2023-08-31T00:46:57;2.00;;;1.90;;
13218;SDS011;6674;49.152;11.918;2023-08-31T00:50:16;1.87;;;1.77;;
13218;SDS011;6674;49.152;11.918;2023-08-31T00:53:39;1.73;;;1.63;;
13218;SDS011;6674;49.152;11.918;2023-08-31T00:57:00;2.00;;;1.90;;
13218;SDS011;6674;49.152;11.918;2023-08-31T01:00:20;1.67;;;1.57;;
13218;SDS011;6674;49.152;11.918;2023-08-31T01:03:47;2.10;;;1.90;;
13218;SDS011;6674;49.152;11.918;2023-08-31T01:07:17;2.10;;;2.00;;
13218;SDS011;6674;49.152;11.918;2023-08-31T01:10:47;2.20;;;2.10;;
13218;SDS011;6674;49.152;11.918;2023-08-31T01:14:17;2.67;;;2.47;;
13218;SDS011;6674;49.152;11.918;2023-08-31T01:17:39;2.47;;;2.37;;
13218;SDS011;6674;49.152;11.918;2023-08-31T01:21:17;2.57;;;2.43;;
13218;SDS011;6674;49.152;11.918;2023-08-31T01:24:43;2.63;;;2.43;;
13218;SDS011;6674;49.152;11.918;2023-08-31T01:28:04;2.70;;;2.50;;
13218;SDS011;6674;49.152;11.918;2023-08-31T01:31:24;3.10;;;2.90;;
13218;SDS011;6674;49.152;11.918;2023-08-31T01:34:44;2.40;;;2.30;;
13218;SDS011;6674;49.152;11.918;2023-08-31T01:38:08;3.27;;;2.60;;
13218;SDS011;6674;49.152;11.918;2023-08-31T01:41:32;2.83;;;2.63;;
13218;SDS011;6674;49.152;11.918;2023-08-31T01:44:54;2.97;;;2.77;;
13218;SDS011;6674;49.152;11.918;2023-08-31T01:48:14;3.50;;;3.30;;
13218;SDS011;6674;49.152;11.918;2023-08-31T01:51:36;3.40;;;2.93;;
13218;SDS011;6674;49.152;11.918;2023-08-31T01:54:55;2.97;;;2.77;;
13218;SDS011;6674;49.152;11.918;2023-08-31T01:58:17;3.60;;;3.23;;
13218;SDS011;6674;49.152;11.918;2023-08-31T02:01:36;3.23;;;2.83;;
13218;SDS011;6674;49.152;11.918;2023-08-31T02:05:02;3.93;;;2.80;;
13218;SDS011;6674;49.152;11.918;2023-08-31T02:08:22;2.90;;;2.70;;
13218;SDS011;6674;49.152;11.918;2023-08-31T02:11:42;2.60;;;2.40;;
13218;SDS011;6674;49.152;11.918;2023-08-31T02:15:04;2.93;;;2.73;;
13218;SDS011;6674;49.152;11.918;2023-08-31T02:18:23;2.77;;;2.57;;
13218;SDS011;6674;49.152;11.918;2023-08-31T02:21:44;3.10;;;2.80;;
13218;SDS011;6674;49.152;11.918;2023-08-31T02:25:10;3.30;;;2.77;;
13218;SDS011;6674;49.152;11.918;2023-08-31T02:28:30;3.30;;;3.00;;
13218;SDS011;6674;49.152;11.918;2023-08-31T02:31:51;2.90;;;2.70;;
13218;SDS011;6674;49.152;11.918;2023-08-31T02:35:10;3.43;;;3.13;;
13218;SDS011;6674;49.152;11.918;2023-08-31T02:38:30;3.10;;;2.90;;
13218;SDS011;6674;49.152;11.918;2023-08-31T02:41:49;3.77;;;3.47;;
13218;SDS011;6674;49.152;11.918;2023-08-31T02:45:08;3.70;;;3.40;;
13218;SDS011;6674;49.152;11.918;2023-08-31T02:48:32;3.23;;;3.03;;
13218;SDS011;6674;49.152;11.918;2023-08-31T02:51:52;2.90;;;2.70;;
13218;SDS011;6674;49.152;11.918;2023-08-31T02:55:11;3.83;;;3.53;;
13218;SDS011;6674;49.152;11.918;2023-08-31T02:58:30;3.67;;;3.37;;
13218;SDS011;6674;49.152;11.918;2023-08-31T03:01:49;3.33;;;3.10;;
13218;SDS011;6674;49.152;11.918;2023-08-31T03:05:13;3.03;;;2.73;;
13218;SDS011;6674;49.152;11.918;2023-08-31T03:08:32;3.10;;;2.90;;
13218;SDS011;6674;49.152;11.918;2023-08-31T03:11:51;3.30;;;3.00;;
13218;SDS011;6674;49.152;11.918;2023-08-31T03:15:12;3.00;;;2.80;;
13218;SDS011;6674;49.152;11.918;2023-08-31T03:18:31;3.83;;;3.43;;
13218;SDS011;6674;49.152;11.918;2023-08-31T03:21:51;3.03;;;2.73;;
13218;SDS011;6674;49.152;11.918;2023-08-31T03:25:12;3.40;;;3.10;;
13218;SDS011;6674;49.152;11.918;2023-08-31T03:28:34;2.97;;;2.70;;
13218;SDS011;6674;49.152;11.918;2023-08-31T03:31:59;3.50;;;3.20;;
13218;SDS011;6674;49.152;11.918;2023-08-31T03:35:18;3.03;;;2.70;;
13218;SDS011;6674;49.152;11.918;2023-08-31T03:38:40;3.60;;;3.30;;
13218;SDS011;6674;49.152;11.918;2023-08-31T03:41:59;4.13;;;3.83;;
13218;SDS011;6674;49.152;11.918;2023-08-31T03:45:19;3.20;;;3.00;;
13218;SDS011;6674;49.152;11.918;2023-08-31T03:48:39;3.50;;;3.30;;
13218;SDS011;6674;49.152;11.918;2023-08-31T03:52:00;2.80;;;2.60;;
13218;SDS011;6674;49.152;11.918;2023-08-31T03:55:20;3.03;;;2.83;;
13218;SDS011;6674;49.152;11.918;2023-08-31T03:58:39;2.50;;;2.30;;
13218;SDS011;6674;49.152;11.918;2023-08-31T04:01:59;2.67;;;2.47;;
13218;SDS011;6674;49.152;11.918;2023-08-31T04:05:20;2.80;;;2.60;;
13218;SDS011;6674;49.152;11.918;2023-08-31T04:08:39;2.50;;;2.30;;
13218;SDS011;6674;49.152;11.918;2023-08-31T04:12:00;2.77;;;2.57;;
13218;SDS011;6674;49.152;11.918;2023-08-31T04:15:19;2.60;;;2.40;;
13218;SDS011;6674;49.152;11.918;2023-08-31T04:18:38;2.63;;;2.43;;
13218;SDS011;6674;49.152;11.918;2023-08-31T04:21:58;2.60;;;2.40;;
13218;SDS011;6674;49.152;11.918;2023-08-31T04:25:17;2.20;;;2.10;;
13218;SDS011;6674;49.152;11.918;2023-08-31T04:28:40;2.90;;;2.70;;
13218;SDS011;6674;49.152;11.918;2023-08-31T04:32:00;2.93;;;2.73;;
13218;SDS011;6674;49.152;11.918;2023-08-31T04:35:19;2.93;;;2.73;;
13218;SDS011;6674;49.152;11.918;2023-08-31T04:38:40;3.23;;;2.83;;
13218;SDS011;6674;49.152;11.918;2023-08-31T04:41:59;3.00;;;2.80;;
13218;SDS011;6674;49.152;11.918;2023-08-31T04:45:20;2.53;;;2.37;;
13218;SDS011;6674;49.152;11.918;2023-08-31T04:48:39;3.27;;;2.90;;
13218;SDS011;6674;49.152;11.918;2023-08-31T04:51:58;2.80;;;2.60;;
13218;SDS011;6674;49.152;11.918;2023-08-31T04:55:18;2.30;;;2.20;;
13218;SDS011;6674;49.152;11.918;2023-08-31T04:58:41;2.63;;;2.23;;
13218;SDS011;6674;49.152;11.918;2023-08-31T05:02:02;2.97;;;2.67;;
13218;SDS011;6674;49.152;11.918;2023-08-31T05:05:21;2.87;;;2.67;;
13218;SDS011;6674;49.152;11.918;2023-08-31T05:08:48;3.27;;;3.07;;
13218;SDS011;6674;49.152;11.918;2023-08-31T05:12:07;3.00;;;2.70;;
13218;SDS011;6674;49.152;11.918;2023-08-31T05:15:27;2.97;;;2.77;;
13218;SDS011;6674;49.152;11.918;2023-08-31T05:18:47;3.47;;;3.20;;
13218;SDS011;6674;49.152;11.918;2023-08-31T05:22:07;3.67;;;2.93;;
13218;SDS011;6674;49.152;11.918;2023-08-31T05:25:26;2.60;;;2.40;;
13218;SDS011;6674;49.152;11.918;2023-08-31T05:28:47;3.13;;;2.83;;
13218;SDS011;6674;49.152;11.918;2023-08-31T05:32:07;4.23;;;3.00;;
13218;SDS011;6674;49.152;11.918;2023-08-31T05:35:27;3.90;;;3.60;;
13218;SDS011;6674;49.152;11.918;2023-08-31T05:38:47;2.53;;;2.33;;
13218;SDS011;6674;49.152;11.918;2023-08-31T05:42:06;4.63;;;2.87;;
13218;SDS011;6674;49.152;11.918;2023-08-31T05:45:26;3.87;;;3.57;;
13218;SDS011;6674;49.152;11.918;2023-08-31T05:48:45;3.13;;;2.83;;
13218;SDS011;6674;49.152;11.918;2023-08-31T05:52:06;4.50;;;3.20;;
13218;SDS011;6674;49.152;11.918;2023-08-31T05:55:27;4.27;;;3.90;;
13218;SDS011;6674;49.152;11.918;2023-08-31T05:58:46;3.20;;;3.00;;
13218;SDS011;6674;49.152;11.918;2023-08-31T06:02:05;5.00;;;3.53;;
13218;SDS011;6674;49.152;11.918;2023-08-31T06:05:24;3.90;;;3.57;;
13218;SDS011;6674;49.152;11.918;2023-08-31T06:08:45;3.77;;;3.30;;
13218;SDS011;6674;49.152;11.918;2023-08-31T06:12:04;4.87;;;3.90;;
13218;SDS011;6674;49.152;11.918;2023-08-31T06:15:24;4.60;;;4.20;;
13218;SDS011;6674;49.152;11.918;2023-08-31T06:18:43;5.43;;;4.20;;
13218;SDS011;6674;49.152;11.918;2023-08-31T06:22:03;5.07;;;4.67;;
13218;SDS011;6674;49.152;11.918;2023-08-31T06:25:24;5.83;;;4.47;;
13218;SDS011;6674;49.152;11.918;2023-08-31T06:28:43;5.33;;;4.83;;
13218;SDS011;6674;49.152;11.918;2023-08-31T06:32:02;5.57;;;4.47;;
13218;SDS011;6674;49.152;11.918;2023-08-31T06:35:23;5.37;;;4.87;;
13218;SDS011;6674;49.152;11.918;2023-08-31T06:38:43;6.03;;;4.40;;
13218;SDS011;6674;49.152;11.918;2023-08-31T06:42:04;5.00;;;4.50;;
13218;SDS011;6674;49.152;11.918;2023-08-31T06:45:23;5.20;;;4.70;;
13218;SDS011;6674;49.152;11.918;2023-08-31T06:48:48;6.70;;;4.93;;
13218;SDS011;6674;49.152;11.918;2023-08-31T06:52:09;5.70;;;4.83;;
13218;SDS011;6674;49.152;11.918;2023-08-31T06:55:30;5.43;;;4.70;;
13218;SDS011;6674;49.152;11.918;2023-08-31T06:58:51;5.20;;;4.70;;
13218;SDS011;6674;49.152;11.918;2023-08-31T07:02:12;6.73;;;5.10;;
13218;SDS011;6674;49.152;11.918;2023-08-31T07:05:33;6.50;;;4.70;;
13218;SDS011;6674;49.152;11.918;2023-08-31T07:08:52;4.40;;;4.00;;
13218;SDS011;6674;49.152;11.918;2023-08-31T07:12:12;6.20;;;4.80;;
13218;SDS011;6674;49.152;11.918;2023-08-31T07:15:33;4.83;;;4.40;;
13218;SDS011;6674;49.152;11.918;2023-08-31T07:18:52;4.77;;;4.37;;
13218;SDS011;6674;49.152;11.918;2023-08-31T07:22:12;4.93;;;4.47;;
13218;SDS011;6674;49.152;11.918;2023-08-31T07:25:32;4.80;;;4.40;;
13218;SDS011;6674;49.152;11.918;2023-08-31T07:28:52;5.20;;;3.90;;
13218;SDS011;6674;49.152;11.918;2023-08-31T07:32:13;4.33;;;3.60;;
13218;SDS011;6674;49.152;11.918;2023-08-31T07:35:33;5.63;;;3.37;;
13218;SDS011;6674;49.152;11.918;2023-08-31T07:38:53;3.53;;;3.23;;
13218;SDS011;6674;49.152;11.918;2023-08-31T07:42:13;4.43;;;3.37;;
13218;SDS011;6674;49.152;11.918;2023-08-31T07:45:32;4.77;;;3.20;;
13218;SDS011;6674;49.152;11.918;2023-08-31T07:48:53;3.77;;;3.37;;
13218;SDS011;6674;49.152;11.918;2023-08-31T07:52:13;4.67;;;3.13;;
13218;SDS011;6674;49.152;11.918;2023-08-31T07:55:32;3.47;;;3.10;;
13218;SDS011;6674;49.152;11.918;2023-08-31T07:58:53;4.63;;;3.30;;
13218;SDS011;6674;49.152;11.918;2023-08-31T08:02:12;3.27;;;2.73;;
13218;SDS011;6674;49.152;11.918;2023-08-31T08:05:32;3.10;;;2.80;;
13218;SDS011;6674;49.152;11.918;2023-08-31T08:08:52;3.80;;;3.07;;
13218;SDS011;6674;49.152;11.918;2023-08-31T08:12:11;6.10;;;2.83;;
13218;SDS011;6674;49.152;11.918;2023-08-31T08:15:31;6.70;;;3.30;;
13218;SDS011;6674;49.152;11.918;2023-08-31T08:18:52;3.57;;;2.60;;
13218;SDS011;6674;49.152;11.918;2023-08-31T08:22:13;3.90;;;2.40;;
13218;SDS011;6674;49.152;11.918;2023-08-31T08:25:32;5.00;;;2.50;;
13218;SDS011;6674;49.152;11.918;2023-08-31T08:28:51;3.43;;;2.60;;
13218;SDS011;6674;49.152;11.918;2023-08-31T08:32:11;3.13;;;2.43;;
13218;SDS011;6674;49.152;11.918;2023-08-31T08:35:37;3.03;;;2.63;;
13218;SDS011;6674;49.152;11.918;2023-08-31T08:38:57;5.87;;;2.50;;
13218;SDS011;6674;49.152;11.918;2023-08-31T08:42:17;3.30;;;2.43;;
13218;SDS011;6674;49.152;11.918;2023-08-31T08:45:39;3.43;;;2.10;;
13218;SDS011;6674;49.152;11.918;2023-08-31T08:48:59;3.20;;;2.40;;
13218;SDS011;6674;49.152;11.918;2023-08-31T08:52:19;2.83;;;2.27;;
13218;SDS011;6674;49.152;11.918;2023-08-31T08:55:41;3.70;;;2.20;;
13218;SDS011;6674;49.152;11.918;2023-08-31T08:59:01;3.63;;;1.93;;
13218;SDS011;6674;49.152;11.918;2023-08-31T09:02:20;1.73;;;1.60;;
13218;SDS011;6674;49.152;11.918;2023-08-31T09:05:40;4.07;;;1.90;;
13218;SDS011;6674;49.152;11.918;2023-08-31T09:08:59;4.57;;;2.10;;
13218;SDS011;6674;49.152;11.918;2023-08-31T09:12:22;2.50;;;2.07;;
13218;SDS011;6674;49.152;11.918;2023-08-31T09:15:45;4.10;;;2.07;;
13218;SDS011;6674;49.152;11.918;2023-08-31T09:19:16;2.87;;;1.97;;
13218;SDS011;6674;49.152;11.918;2023-08-31T09:22:40;3.00;;;2.13;;
13218;SDS011;6674;49.152;11.918;2023-08-31T09:26:01;2.40;;;1.90;;
13218;SDS011;6674;49.152;11.918;2023-08-31T09:29:22;3.20;;;1.90;;
13218;SDS011;6674;49.152;11.918;2023-08-31T09:32:43;3.13;;;1.73;;
13218;SDS011;6674;49.152;11.918;2023-08-31T09:36:02;3.83;;;2.00;;
13218;SDS011;6674;49.152;11.918;2023-08-31T09:39:30;3.57;;;2.30;;
13218;SDS011;6674;49.152;11.918;2023-08-31T09:42:54;3.30;;;1.87;;
13218;SDS011;6674;49.152;11.918;2023-08-31T09:46:14;4.17;;;1.90;;
13218;SDS011;6674;49.152;11.918;2023-08-31T09:49:34;3.57;;;2.13;;
13218;SDS011;6674;49.152;11.918;2023-08-31T09:52:55;3.33;;;1.90;;
13218;SDS011;6674;49.152;11.918;2023-08-31T09:56:18;3.43;;;1.83;;
13218;SDS011;6674;49.152;11.918;2023-08-31T09:59:41;2.67;;;1.80;;
13218;SDS011;6674;49.152;11.918;2023-08-31T10:03:04;2.43;;;1.73;;
13218;SDS011;6674;49.152;11.918;2023-08-31T10:06:26;2.20;;;1.57;;
13218;SDS011;6674;49.152;11.918;2023-08-31T10:09:52;2.87;;;2.17;;
13218;SDS011;6674;49.152;11.918;2023-08-31T10:13:12;3.73;;;2.20;;
13218;SDS011;6674;49.152;11.918;2023-08-31T10:16:32;2.63;;;1.70;;
13218;SDS011;6674;49.152;11.918;2023-08-31T10:19:53;2.30;;;1.57;;
13218;SDS011;6674;49.152;11.918;2023-08-31T10:23:14;2.33;;;1.50;;
13218;SDS011;6674;49.152;11.918;2023-08-31T10:26:33;4.43;;;2.20;;
13218;SDS011;6674;49.152;11.918;2023-08-31T10:29:54;4.07;;;1.87;;
13218;SDS011;6674;49.152;11.918;2023-08-31T10:33:27;4.47;;;1.87;;
13218;SDS011;6674;49.152;11.918;2023-08-31T10:37:01;3.67;;;1.90;;
13218;SDS011;6674;49.152;11.918;2023-08-31T10:40:39;1.70;;;1.60;;
13218;SDS011;6674;49.152;11.918;2023-08-31T10:44:00;2.43;;;1.43;;
13218;SDS011;6674;49.152;11.918;2023-08-31T10:47:39;2.67;;;1.63;;
13218;SDS011;6674;49.152;11.918;2023-08-31T10:51:16;2.87;;;1.93;;
13218;SDS011;6674;49.152;11.918;2023-08-31T10:54:43;2.90;;;1.70;;
13218;SDS011;6674;49.152;11.918;2023-08-31T10:58:15;3.27;;;1.67;;
13218;SDS011;6674;49.152;11.918;2023-08-31T11:01:54;1.93;;;1.80;;
13218;SDS011;6674;49.152;11.918;2023-08-31T11:05:14;2.10;;;1.80;;
13218;SDS011;6674;49.152;11.918;2023-08-31T11:08:37;2.37;;;1.83;;
13218;SDS011;6674;49.152;11.918;2023-08-31T11:11:57;1.93;;;1.63;;
13218;SDS011;6674;49.152;11.918;2023-08-31T11:15:17;2.30;;;1.83;;
13218;SDS011;6674;49.152;11.918;2023-08-31T11:18:37;2.43;;;1.93;;
13218;SDS011;6674;49.152;11.918;2023-08-31T11:21:56;2.67;;;1.90;;
13218;SDS011;6674;49.152;11.918;2023-08-31T11:25:26;2.70;;;1.80;;
13218;SDS011;6674;49.152;11.918;2023-08-31T11:28:50;3.10;;;1.90;;
13218;SDS011;6674;49.152;11.918;2023-08-31T11:32:09;3.93;;;1.77;;
13218;SDS011;6674;49.152;11.918;2023-08-31T11:35:31;2.27;;;1.67;;
13218;SDS011;6674;49.152;11.918;2023-08-31T11:38:51;3.73;;;1.80;;
13218;SDS011;6674;49.152;11.918;2023-08-31T11:42:18;2.77;;;1.70;;
13218;SDS011;6674;49.152;11.918;2023-08-31T11:45:38;1.60;;;1.50;;
13218;SDS011;6674;49.152;11.918;2023-08-31T11:48:58;2.40;;;2.00;;
13218;SDS011;6674;49.152;11.918;2023-08-31T11:52:18;1.60;;;1.50;;
13218;SDS011;6674;49.152;11.918;2023-08-31T11:55:48;2.40;;;1.73;;
13218;SDS011;6674;49.152;11.918;2023-08-31T11:59:11;3.93;;;1.73;;
13218;SDS011;6674;49.152;11.918;2023-08-31T12:02:39;2.33;;;1.60;;
13218;SDS011;6674;49.152;11.918;2023-08-31T12:06:08;2.67;;;1.80;;
13218;SDS011;6674;49.152;11.918;2023-08-31T12:09:30;3.47;;;2.10;;
13218;SDS011;6674;49.152;11.918;2023-08-31T12:12:50;3.47;;;2.03;;
13218;SDS011;6674;49.152;11.918;2023-08-31T12:16:13;2.27;;;1.77;;
13218;SDS011;6674;49.152;11.918;2023-08-31T12:19:33;2.80;;;2.07;;
13218;SDS011;6674;49.152;11.918;2023-08-31T12:22:55;3.03;;;1.93;;
13218;SDS011;6674;49.152;11.918;2023-08-31T12:26:14;2.13;;;1.77;;
13218;SDS011;6674;49.152;11.918;2023-08-31T12:29:34;2.90;;;1.80;;
13218;SDS011;6674;49.152;11.918;2023-08-31T12:32:55;1.80;;;1.63;;
13218;SDS011;6674;49.152;11.918;2023-08-31T12:36:15;2.40;;;2.10;;
13218;SDS011;6674;49.152;11.918;2023-08-31T12:39:34;2.43;;;1.70;;
13218;SDS011;6674;49.152;11.918;2023-08-31T12:42:53;2.67;;;2.13;;
13218;SDS011;6674;49.152;11.918;2023-08-31T12:46:14;3.33;;;2.00;;
13218;SDS011;6674;49.152;11.918;2023-08-31T12:49:35;2.47;;;2.00;;
13218;SDS011;6674;49.152;11.918;2023-08-31T12:52:55;3.57;;;2.00;;
13218;SDS011;6674;49.152;11.918;2023-08-31T12:56:14;1.80;;;1.70;;
13218;SDS011;6674;49.152;11.918;2023-08-31T12:59:35;2.90;;;1.90;;
13218;SDS011;6674;49.152;11.918;2023-08-31T13:02:55;2.70;;;1.97;;
13218;SDS011;6674;49.152;11.918;2023-08-31T13:06:15;2.53;;;1.90;;
13218;SDS011;6674;49.152;11.918;2023-08-31T13:09:34;2.30;;;2.00;;
13218;SDS011;6674;49.152;11.918;2023-08-31T13:12:55;2.17;;;1.93;;
13218;SDS011;6674;49.152;11.918;2023-08-31T13:16:14;2.10;;;1.90;;
13218;SDS011;6674;49.152;11.918;2023-08-31T13:19:34;2.23;;;1.97;;
13218;SDS011;6674;49.152;11.918;2023-08-31T13:22:55;1.97;;;1.80;;
13218;SDS011;6674;49.152;11.918;2023-08-31T13:26:14;2.17;;;1.97;;
13218;SDS011;6674;49.152;11.918;2023-08-31T13:29:33;2.63;;;2.10;;
13218;SDS011;6674;49.152;11.918;2023-08-31T13:32:54;2.43;;;1.77;;
13218;SDS011;6674;49.152;11.918;2023-08-31T13:36:14;2.93;;;2.13;;
13218;SDS011;6674;49.152;11.918;2023-08-31T13:39:35;2.67;;;2.00;;
13218;SDS011;6674;49.152;11.918;2023-08-31T13:42:56;3.67;;;2.13;;
13218;SDS011;6674;49.152;11.918;2023-08-31T13:46:18;2.63;;;2.10;;
13218;SDS011;6674;49.152;11.918;2023-08-31T13:49:37;2.80;;;2.17;;
13218;SDS011;6674;49.152;11.918;2023-08-31T13:52:57;3.40;;;2.00;;
13218;SDS011;6674;49.152;11.918;2023-08-31T13:56:18;3.23;;;2.30;;
13218;SDS011;6674;49.152;11.918;2023-08-31T13:59:42;2.70;;;2.13;;
13218;SDS011;6674;49.152;11.918;2023-08-31T14:03:03;2.33;;;1.90;;
13218;SDS011;6674;49.152;11.918;2023-08-31T14:06:24;3.00;;;2.10;;
13218;SDS011;6674;49.152;11.918;2023-08-31T14:09:43;2.73;;;2.37;;
13218;SDS011;6674;49.152;11.918;2023-08-31T14:13:07;2.07;;;1.90;;
13218;SDS011;6674;49.152;11.918;2023-08-31T14:16:35;3.00;;;1.97;;
13218;SDS011;6674;49.152;11.918;2023-08-31T14:19:55;2.47;;;1.90;;
13218;SDS011;6674;49.152;11.918;2023-08-31T14:23:14;2.27;;;1.90;;
13218;SDS011;6674;49.152;11.918;2023-08-31T14:26:33;2.93;;;2.10;;
13218;SDS011;6674;49.152;11.918;2023-08-31T14:29:57;3.40;;;1.90;;
13218;SDS011;6674;49.152;11.918;2023-08-31T14:33:17;2.53;;;1.93;;
13218;SDS011;6674;49.152;11.918;2023-08-31T14:36:42;2.30;;;2.10;;
13218;SDS011;6674;49.152;11.918;2023-08-31T14:40:02;2.73;;;2.03;;
13218;SDS011;6674;49.152;11.918;2023-08-31T14:43:22;4.20;;;2.23;;
13218;SDS011;6674;49.152;11.918;2023-08-31T14:46:43;3.00;;;2.07;;
13218;SDS011;6674;49.152;11.918;2023-08-31T14:50:02;2.63;;;1.93;;
13218;SDS011;6674;49.152;11.918;2023-08-31T14:53:23;2.57;;;2.07;;
13218;SDS011;6674;49.152;11.918;2023-08-31T14:56:42;3.33;;;2.10;;
13218;SDS011;6674;49.152;11.918;2023-08-31T15:00:02;3.40;;;1.93;;
13218;SDS011;6674;49.152;11.918;2023-08-31T15:03:23;2.60;;;1.87;;
13218;SDS011;6674;49.152;11.918;2023-08-31T15:06:44;3.77;;;2.03;;
13218;SDS011;6674;49.152;11.918;2023-08-31T15:10:04;2.20;;;2.00;;
13218;SDS011;6674;49.152;11.918;2023-08-31T15:13:25;2.53;;;1.90;;
13218;SDS011;6674;49.152;11.918;2023-08-31T15:16:44;2.80;;;2.27;;
13218;SDS011;6674;49.152;11.918;2023-08-31T15:20:06;2.77;;;2.30;;
13218;SDS011;6674;49.152;11.918;2023-08-31T15:23:26;2.93;;;2.10;;
13218;SDS011;6674;49.152;11.918;2023-08-31T15:26:45;2.13;;;1.93;;
13218;SDS011;6674;49.152;11.918;2023-08-31T15:30:06;2.63;;;1.90;;
13218;SDS011;6674;49.152;11.918;2023-08-31T15:33:25;2.47;;;1.70;;
13218;SDS011;6674;49.152;11.918;2023-08-31T15:36:48;2.63;;;2.40;;
13218;SDS011;6674;49.152;11.918;2023-08-31T15:40:07;1.73;;;1.60;;
13218;SDS011;6674;49.152;11.918;2023-08-31T15:43:29;3.07;;;2.20;;
13218;SDS011;6674;49.152;11.918;2023-08-31T15:46:48;2.20;;;2.00;;
13218;SDS011;6674;49.152;11.918;2023-08-31T15:50:07;3.87;;;2.33;;
13218;SDS011;6674;49.152;11.918;2023-08-31T15:53:30;2.93;;;2.20;;
13218;SDS011;6674;49.152;11.918;2023-08-31T15:56:49;2.40;;;2.20;;
13218;SDS011;6674;49.152;11.918;2023-08-31T16:00:09;2.40;;;2.20;;
13218;SDS011;6674;49.152;11.918;2023-08-31T16:03:29;3.23;;;2.10;;
13218;SDS011;6674;49.152;11.918;2023-08-31T16:06:50;3.07;;;2.10;;
13218;SDS011;6674;49.152;11.918;2023-08-31T16:10:17;3.20;;;1.90;;
13218;SDS011;6674;49.152;11.918;2023-08-31T16:13:36;3.90;;;2.40;;
13218;SDS011;6674;49.152;11.918;2023-08-31T16:17:01;3.50;;;2.00;;
13218;SDS011;6674;49.152;11.918;2023-08-31T16:20:21;2.77;;;2.03;;
13218;SDS011;6674;49.152;11.918;2023-08-31T16:23:40;2.57;;;1.80;;
13218;SDS011;6674;49.152;11.918;2023-08-31T16:27:06;2.03;;;1.83;;
13218;SDS011;6674;49.152;11.918;2023-08-31T16:30:25;3.20;;;2.43;;
13218;SDS011;6674;49.152;11.918;2023-08-31T16:33:45;4.23;;;2.30;;
13218;SDS011;6674;49.152;11.918;2023-08-31T16:37:04;2.53;;;2.27;;
13218;SDS011;6674;49.152;11.918;2023-08-31T16:40:24;2.20;;;1.90;;
13218;SDS011;6674;49.152;11.918;2023-08-31T16:43:46;3.67;;;2.20;;
13218;SDS011;6674;49.152;11.918;2023-08-31T16:47:07;2.10;;;1.90;;
13218;SDS011;6674;49.152;11.918;2023-08-31T16:50:29;1.93;;;1.80;;
13218;SDS011;6674;49.152;11.918;2023-08-31T16:53:50;2.57;;;2.17;;
13218;SDS011;6674;49.152;11.918;2023-08-31T16:57:09;5.10;;;2.30;;
13218;SDS011;6674;49.152;11.918;2023-08-31T17:00:30;2.50;;;2.00;;
13218;SDS011;6674;49.152;11.918;2023-08-31T17:03:50;3.63;;;2.03;;
13218;SDS011;6674;49.152;11.918;2023-08-31T17:07:10;2.50;;;2.00;;
13218;SDS011;6674;49.152;11.918;2023-08-31T17:10:30;2.33;;;2.10;;
13218;SDS011;6674;49.152;11.918;2023-08-31T17:13:51;3.07;;;2.20;;
13218;SDS011;6674;49.152;11.918;2023-08-31T17:17:14;3.10;;;1.80;;
13218;SDS011;6674;49.152;11.918;2023-08-31T17:20:34;2.93;;;2.00;;
13218;SDS011;6674;49.152;11.918;2023-08-31T17:24:00;2.07;;;1.80;;
13218;SDS011;6674;49.152;11.918;2023-08-31T17:27:27;2.50;;;1.90;;
13218;SDS011;6674;49.152;11.918;2023-08-31T17:30:53;2.60;;;1.77;;
13218;SDS011;6674;49.152;11.918;2023-08-31T17:34:15;1.90;;;1.80;;
13218;SDS011;6674;49.152;11.918;2023-08-31T17:37:35;3.60;;;2.13;;
13218;SDS011;6674;49.152;11.918;2023-08-31T17:40:56;2.70;;;2.30;;
13218;SDS011;6674;49.152;11.918;2023-08-31T17:44:16;2.77;;;2.10;;
13218;SDS011;6674;49.152;11.918;2023-08-31T17:47:37;2.23;;;2.03;;
13218;SDS011;6674;49.152;11.918;2023-08-31T17:50:58;2.80;;;2.10;;
13218;SDS011;6674;49.152;11.918;2023-08-31T17:54:18;1.80;;;1.70;;
13218;SDS011;6674;49.152;11.918;2023-08-31T17:57:38;2.00;;;1.57;;
13218;SDS011;6674;49.152;11.918;2023-08-31T18:01:01;3.00;;;2.13;;
13218;SDS011;6674;49.152;11.918;2023-08-31T18:04:24;1.67;;;1.57;;
13218;SDS011;6674;49.152;11.918;2023-08-31T18:07:47;2.37;;;2.17;;
13218;SDS011;6674;49.152;11.918;2023-08-31T18:11:09;2.47;;;1.90;;
13218;SDS011;6674;49.152;11.918;2023-08-31T18:14:29;1.80;;;1.70;;
13218;SDS011;6674;49.152;11.918;2023-08-31T18:17:48;2.13;;;1.80;;
13218;SDS011;6674;49.152;11.918;2023-08-31T18:21:09;2.27;;;1.80;;
13218;SDS011;6674;49.152;11.918;2023-08-31T18:24:32;3.30;;;2.20;;
13218;SDS011;6674;49.152;11.918;2023-08-31T18:27:54;2.20;;;2.00;;
13218;SDS011;6674;49.152;11.918;2023-08-31T18:31:14;2.37;;;2.17;;
13218;SDS011;6674;49.152;11.918;2023-08-31T18:34:33;2.50;;;2.10;;
13218;SDS011;6674;49.152;11.918;2023-08-31T18:37:53;3.10;;;2.30;;
13218;SDS011;6674;49.152;11.918;2023-08-31T18:41:14;2.40;;;2.20;;
13218;SDS011;6674;49.152;11.918;2023-08-31T18:44:35;3.00;;;2.30;;
13218;SDS011;6674;49.152;11.918;2023-08-31T18:47:54;3.10;;;2.30;;
13218;SDS011;6674;49.152;11.918;2023-08-31T18:51:14;2.77;;;2.20;;
13218;SDS011;6674;49.152;11.918;2023-08-31T18:54:34;3.40;;;2.20;;
13218;SDS011;6674;49.152;11.918;2023-08-31T18:57:55;3.47;;;2.33;;
13218;SDS011;6674;49.152;11.918;2023-08-31T19:01:15;3.27;;;2.53;;
13218;SDS011;6674;49.152;11.918;2023-08-31T19:04:35;3.67;;;2.50;;
13218;SDS011;6674;49.152;11.918;2023-08-31T19:07:56;2.77;;;2.27;;
13218;SDS011;6674;49.152;11.918;2023-08-31T19:11:16;3.27;;;2.53;;
13218;SDS011;6674;49.152;11.918;2023-08-31T19:14:37;3.00;;;2.23;;
13218;SDS011;6674;49.152;11.918;2023-08-31T19:17:59;2.70;;;2.40;;
13218;SDS011;6674;49.152;11.918;2023-08-31T19:21:19;2.43;;;2.00;;
13218;SDS011;6674;49.152;11.918;2023-08-31T19:24:38;2.50;;;2.30;;
13218;SDS011;6674;49.152;11.918;2023-08-31T19:27:59;2.73;;;2.33;;
13218;SDS011;6674;49.152;11.918;2023-08-31T19:31:19;3.17;;;2.27;;
13218;SDS011;6674;49.152;11.918;2023-08-31T19:34:39;3.33;;;2.60;;
13218;SDS011;6674;49.152;11.918;2023-08-31T19:37:58;2.43;;;2.20;;
13218;SDS011;6674;49.152;11.918;2023-08-31T19:41:17;3.00;;;2.37;;
13218;SDS011;6674;49.152;11.918;2023-08-31T19:44:36;3.53;;;2.50;;
13218;SDS011;6674;49.152;11.918;2023-08-31T19:48:03;2.47;;;2.17;;
13218;SDS011;6674;49.152;11.918;2023-08-31T19:51:23;2.00;;;1.90;;
13218;SDS011;6674;49.152;11.918;2023-08-31T19:54:43;2.63;;;2.33;;
13218;SDS011;6674;49.152;11.918;2023-08-31T19:58:03;4.10;;;2.50;;
13218;SDS011;6674;49.152;11.918;2023-08-31T20:01:26;3.23;;;2.23;;
13218;SDS011;6674;49.152;11.918;2023-08-31T20:04:46;4.40;;;2.50;;
13218;SDS011;6674;49.152;11.918;2023-08-31T20:08:06;3.47;;;2.70;;
13218;SDS011;6674;49.152;11.918;2023-08-31T20:11:31;3.03;;;2.33;;
13218;SDS011;6674;49.152;11.918;2023-08-31T20:14:50;2.50;;;2.27;;